Time;durP1;ratioP1;P1;durP2;ratioP2;P2;SDS_P1;SDS_P2;PMS_P1;PMS_P2;Temp;Humidity;BMP_temperature;BMP_pressure;BME280_temperature;BME280_humidity;BME280_pressure;Samples;Min_cycle;Max_cycle;Signal;HPM_P1;HPM_P2
2021/08/25 00:01:16;;;;;;;19.92;15.93;;;;;;;;;;5051699;28;20184;-69
2021/08/25 00:03:41;;;;;;;21.70;16.75;;;;;;;;;;5051297;28;20707;-69
2021/08/25 00:06:06;;;;;;;19.65;16.17;;;;;;;;;;5052054;28;20195;-70
2021/08/25 00:08:31;;;;;;;20.60;16.92;;;;;;;;;;5052738;28;20182;-70
2021/08/25 00:10:57;;;;;;;20.60;17.08;;;;;;;;;;5046495;28;20169;-70
2021/08/25 00:13:22;;;;;;;21.70;16.98;;;;;;;;;;5047358;28;20626;-70
2021/08/25 00:15:47;;;;;;;20.17;17.85;;;;;;;;;;5050768;28;20185;-70
2021/08/25 00:18:13;;;;;;;22.92;19.10;;;;;;;;;;5051039;28;20213;-70
2021/08/25 00:20:38;;;;;;;21.13;18.02;;;;;;;;;;5052691;28;20166;-70
2021/08/25 00:23:04;;;;;;;23.90;17.70;;;;;;;;;;5051517;28;20337;-70
2021/08/25 00:25:29;;;;;;;23.52;18.52;;;;;;;;;;5050573;28;20178;-70
2021/08/25 00:27:54;;;;;;;19.80;16.85;;;;;;;;;;5051666;28;20611;-70
2021/08/25 00:30:19;;;;;;;19.90;17.50;;;;;;;;;;5037952;28;20628;-70
2021/08/25 00:32:44;;;;;;;22.30;18.77;;;;;;;;;;5044069;28;20689;-70
2021/08/25 00:35:11;;;;;;;19.85;17.35;;;;;;;;;;5051139;28;20173;-71
2021/08/25 00:37:36;;;;;;;19.98;17.88;;;;;;;;;;5048314;28;20170;-71
2021/08/25 00:40:02;;;;;;;20.15;17.40;;;;;;;;;;5051198;28;20256;-70
2021/08/25 00:42:27;;;;;;;22.15;17.52;;;;;;;;;;5051490;28;20563;-70
2021/08/25 00:44:52;;;;;;;21.77;19.48;;;;;;;;;;5049364;28;20185;-70
2021/08/25 00:47:17;;;;;;;21.27;18.30;;;;;;;;;;5045849;28;20252;-70
2021/08/25 00:49:44;;;;;;;21.85;17.98;;;;;;;;;;5047710;28;20430;-70
2021/08/25 00:52:09;;;;;;;23.38;19.35;;;;;;;;;;5048096;28;20198;-70
2021/08/25 00:54:34;;;;;;;20.77;17.83;;;;;;;;;;5049081;28;20704;-71
2021/08/25 00:56:59;;;;;;;21.13;18.33;;;;;;;;;;5048423;28;20645;-70
2021/08/25 00:59:24;;;;;;;20.70;18.17;;;;;;;;;;5043461;28;20203;-70
2021/08/25 01:02:01;;;;;;;27.83;20.40;;;;;;;;;;5049884;28;20201;-70
2021/08/25 01:04:29;;;;;;;21.80;18.73;;;;;;;;;;5047980;28;20185;-70
2021/08/25 01:06:55;;;;;;;26.35;20.75;;;;;;;;;;5050590;28;20258;-70
2021/08/25 01:09:20;;;;;;;23.20;20.27;;;;;;;;;;5033355;28;20220;-70
2021/08/25 01:11:48;;;;;;;24.75;20.17;;;;;;;;;;5049603;28;20198;-71
2021/08/25 01:14:14;;;;;;;25.75;20.52;;;;;;;;;;5049467;28;20212;-70
2021/08/25 01:16:40;;;;;;;23.20;19.55;;;;;;;;;;5026781;28;20543;-71
2021/08/25 01:19:06;;;;;;;27.27;21.33;;;;;;;;;;5051177;28;20189;-71
2021/08/25 01:21:31;;;;;;;27.35;22.35;;;;;;;;;;5051730;28;20176;-70
2021/08/25 01:23:57;;;;;;;20.73;17.50;;;;;;;;;;5049940;28;20561;-70
2021/08/25 01:26:23;;;;;;;23.83;20.50;;;;;;;;;;5051177;28;20238;-70
2021/08/25 01:28:50;;;;;;;23.85;18.50;;;;;;;;;;5049694;28;20247;-70
2021/08/25 01:31:18;;;;;;;26.58;20.38;;;;;;;;;;5051240;28;20654;-70
2021/08/25 01:33:43;;;;;;;24.17;18.08;;;;;;;;;;5050492;28;20205;-70
2021/08/25 01:36:18;;;;;;;24.63;19.93;;;;;;;;;;5051082;28;20659;-70
2021/08/25 01:38:50;;;;;;;24.55;20.50;;;;;;;;;;5048936;28;20431;-70
2021/08/25 01:41:16;;;;;;;28.35;21.48;;;;;;;;;;5041167;28;20176;-70
2021/08/25 01:43:42;;;;;;;29.88;21.65;;;;;;;;;;5046388;28;20571;-70
2021/08/25 01:46:07;;;;;;;27.38;21.70;;;;;;;;;;5048089;28;20682;-70
2021/08/25 01:48:33;;;;;;;26.63;21.70;;;;;;;;;;5048914;28;21109;-70
2021/08/25 01:50:58;;;;;;;28.38;21.98;;;;;;;;;;5050884;28;20205;-70
2021/08/25 01:53:23;;;;;;;28.98;22.83;;;;;;;;;;5050557;28;20710;-70
2021/08/25 01:55:48;;;;;;;32.78;23.90;;;;;;;;;;5048432;28;20235;-70
2021/08/25 01:58:13;;;;;;;24.48;19.55;;;;;;;;;;5048456;28;20193;-69
2021/08/25 02:00:39;;;;;;;26.95;21.35;;;;;;;;;;5050437;28;20231;-69
2021/08/25 02:03:04;;;;;;;26.83;22.05;;;;;;;;;;5049315;28;20279;-69
2021/08/25 02:05:29;;;;;;;27.93;20.30;;;;;;;;;;5051157;28;20165;-69
2021/08/25 02:07:54;;;;;;;25.90;20.92;;;;;;;;;;5048557;28;20469;-70
2021/08/25 02:10:19;;;;;;;23.30;18.02;;;;;;;;;;5050797;28;20265;-69
2021/08/25 02:12:44;;;;;;;25.70;20.05;;;;;;;;;;5049382;28;20251;-72
2021/08/25 02:15:10;;;;;;;24.42;20.23;;;;;;;;;;5047806;28;20181;-68
2021/08/25 02:17:35;;;;;;;25.50;19.45;;;;;;;;;;5037782;28;20229;-69
2021/08/25 02:20:01;;;;;;;24.38;19.98;;;;;;;;;;5049338;28;20185;-69
2021/08/25 02:22:26;;;;;;;23.13;20.63;;;;;;;;;;5048797;28;20197;-69
2021/08/25 02:24:51;;;;;;;23.27;19.70;;;;;;;;;;5047667;28;20190;-70
2021/08/25 02:27:16;;;;;;;24.58;18.80;;;;;;;;;;5048382;28;20174;-70
2021/08/25 02:29:41;;;;;;;26.27;20.95;;;;;;;;;;5047461;28;20510;-71
2021/08/25 02:32:07;;;;;;;28.73;22.13;;;;;;;;;;5045413;28;20216;-69
2021/08/25 02:34:32;;;;;;;28.88;21.58;;;;;;;;;;5047748;28;20583;-69
2021/08/25 02:36:57;;;;;;;27.83;23.30;;;;;;;;;;5049846;28;20709;-69
2021/08/25 02:39:22;;;;;;;32.72;23.83;;;;;;;;;;5049851;28;20189;-69
2021/08/25 02:41:48;;;;;;;28.95;21.85;;;;;;;;;;5050628;28;20251;-69
2021/08/25 02:44:13;;;;;;;34.67;23.98;;;;;;;;;;5047677;28;20246;-68
2021/08/25 02:46:38;;;;;;;27.87;22.63;;;;;;;;;;5048413;28;20273;-68
2021/08/25 02:49:03;;;;;;;31.52;24.30;;;;;;;;;;5048765;28;20944;-68
2021/08/25 02:51:28;;;;;;;31.73;22.25;;;;;;;;;;5049187;28;20667;-69
2021/08/25 02:53:53;;;;;;;37.55;25.23;;;;;;;;;;5048011;28;20197;-69
2021/08/25 02:56:19;;;;;;;35.88;25.55;;;;;;;;;;5048581;28;20211;-69
2021/08/25 02:58:45;;;;;;;35.80;24.98;;;;;;;;;;5048095;28;20174;-70
2021/08/25 03:01:10;;;;;;;32.25;23.65;;;;;;;;;;5050505;28;20178;-68
2021/08/25 03:03:35;;;;;;;36.08;26.00;;;;;;;;;;5052016;28;20701;-68
2021/08/25 03:06:00;;;;;;;28.55;23.20;;;;;;;;;;5053888;28;20209;-69
2021/08/25 03:08:25;;;;;;;33.35;24.50;;;;;;;;;;5052947;28;20180;-68
2021/08/25 03:10:50;;;;;;;35.92;26.58;;;;;;;;;;5053484;28;20193;-69
2021/08/25 03:13:16;;;;;;;36.53;27.48;;;;;;;;;;5051409;28;20213;-68
2021/08/25 03:15:41;;;;;;;34.35;24.23;;;;;;;;;;5051859;28;20181;-70
2021/08/25 03:18:06;;;;;;;34.13;25.40;;;;;;;;;;5043508;28;20182;-70
2021/08/25 03:20:31;;;;;;;43.63;29.55;;;;;;;;;;5025249;28;20185;-68
2021/08/25 03:22:57;;;;;;;32.50;23.93;;;;;;;;;;5049665;28;20205;-69
2021/08/25 03:25:22;;;;;;;40.97;28.15;;;;;;;;;;5050355;28;20194;-70
2021/08/25 03:27:47;;;;;;;38.00;27.23;;;;;;;;;;5047353;28;20177;-69
2021/08/25 03:30:12;;;;;;;41.80;29.70;;;;;;;;;;5050344;28;20170;-69
2021/08/25 03:32:38;;;;;;;42.67;30.27;;;;;;;;;;5050770;28;20209;-68
2021/08/25 03:35:03;;;;;;;42.07;27.57;;;;;;;;;;5050787;28;20169;-69
2021/08/25 03:37:28;;;;;;;47.20;29.53;;;;;;;;;;5050342;28;20177;-69
2021/08/25 03:39:53;;;;;;;35.22;24.95;;;;;;;;;;5050361;28;20208;-68
2021/08/25 03:42:18;;;;;;;37.58;25.77;;;;;;;;;;5049803;28;20212;-69
2021/08/25 03:44:44;;;;;;;39.25;26.80;;;;;;;;;;5050729;28;20205;-69
2021/08/25 03:47:09;;;;;;;36.50;25.58;;;;;;;;;;5051085;28;20184;-69
2021/08/25 03:49:35;;;;;;;44.45;28.17;;;;;;;;;;5052025;28;20182;-70
2021/08/25 03:52:00;;;;;;;50.95;30.08;;;;;;;;;;5051909;28;20681;-68
2021/08/25 03:54:27;;;;;;;43.65;28.60;;;;;;;;;;5050836;28;20210;-69
2021/08/25 03:56:52;;;;;;;48.38;29.77;;;;;;;;;;5052389;28;20228;-68
2021/08/25 03:59:18;;;;;;;39.80;27.48;;;;;;;;;;5051249;28;20597;-69
2021/08/25 04:01:43;;;;;;;51.88;30.30;;;;;;;;;;5053404;28;20198;-69
2021/08/25 04:04:08;;;;;;;49.95;31.23;;;;;;;;;;5060154;28;20192;-69
2021/08/25 04:06:37;;;;;;;52.53;32.33;;;;;;;;;;5056848;28;20592;-69
2021/08/25 04:09:03;;;;;;;46.00;30.35;;;;;;;;;;5053767;28;20182;-69
2021/08/25 04:11:28;;;;;;;55.57;33.83;;;;;;;;;;5052614;28;20228;-68
2021/08/25 04:13:54;;;;;;;50.93;29.87;;;;;;;;;;5051259;28;20693;-68
2021/08/25 04:16:19;;;;;;;46.07;28.73;;;;;;;;;;5051234;28;20180;-69
2021/08/25 04:18:44;;;;;;;42.33;26.95;;;;;;;;;;5051715;28;20177;-69
2021/08/25 04:21:09;;;;;;;50.33;31.45;;;;;;;;;;5052984;28;20560;-69
2021/08/25 04:23:34;;;;;;;58.42;33.85;;;;;;;;;;5051857;28;20283;-68
2021/08/25 04:26:00;;;;;;;41.03;29.08;;;;;;;;;;5046837;28;20188;-69
2021/08/25 04:28:25;;;;;;;47.73;29.77;;;;;;;;;;5042439;28;20554;-68
2021/08/25 04:30:51;;;;;;;44.47;27.73;;;;;;;;;;5050258;28;20186;-70
2021/08/25 04:33:16;;;;;;;44.70;29.27;;;;;;;;;;5050694;28;20212;-69
2021/08/25 04:35:41;;;;;;;49.93;32.83;;;;;;;;;;5051539;28;20658;-69
2021/08/25 04:38:06;;;;;;;49.33;31.63;;;;;;;;;;5051447;28;20189;-69
2021/08/25 04:40:31;;;;;;;47.08;31.42;;;;;;;;;;5052560;28;20169;-69
2021/08/25 04:42:57;;;;;;;49.20;30.73;;;;;;;;;;5051957;28;20201;-69
2021/08/25 04:45:22;;;;;;;51.90;32.50;;;;;;;;;;5049992;28;20666;-69
2021/08/25 04:47:47;;;;;;;53.70;29.60;;;;;;;;;;5050677;28;20659;-69
2021/08/25 04:50:12;;;;;;;54.67;32.03;;;;;;;;;;5051283;28;20568;-70
2021/08/25 04:52:38;;;;;;;46.63;29.63;;;;;;;;;;5052556;28;20555;-69
2021/08/25 04:55:03;;;;;;;53.90;32.83;;;;;;;;;;5051513;28;20186;-69
2021/08/25 04:57:28;;;;;;;53.13;33.47;;;;;;;;;;5052619;28;20667;-69
2021/08/25 04:59:53;;;;;;;50.20;31.67;;;;;;;;;;5051100;28;20282;-70
2021/08/25 05:02:18;;;;;;;44.20;28.40;;;;;;;;;;5048911;28;20201;-69
2021/08/25 05:04:46;;;;;;;46.50;29.40;;;;;;;;;;5044593;28;20204;-69
2021/08/25 05:07:12;;;;;;;47.67;31.77;;;;;;;;;;5033066;28;20234;-70
2021/08/25 05:09:38;;;;;;;54.10;32.50;;;;;;;;;;5050579;28;20257;-70
2021/08/25 05:12:03;;;;;;;51.50;34.23;;;;;;;;;;5050560;28;21149;-70
2021/08/25 05:14:28;;;;;;;56.15;34.75;;;;;;;;;;5051069;28;20201;-69
2021/08/25 05:16:53;;;;;;;56.38;34.15;;;;;;;;;;5049820;28;20687;-69
2021/08/25 05:19:18;;;;;;;56.15;35.67;;;;;;;;;;5050502;28;20295;-70
2021/08/25 05:21:44;;;;;;;50.30;30.80;;;;;;;;;;5050440;28;20198;-70
2021/08/25 05:24:09;;;;;;;59.55;35.38;;;;;;;;;;5047540;28;20276;-70
2021/08/25 05:26:34;;;;;;;45.80;30.15;;;;;;;;;;5049434;28;20185;-69
2021/08/25 05:28:59;;;;;;;54.30;33.90;;;;;;;;;;5050785;28;20259;-68
2021/08/25 05:31:25;;;;;;;51.10;32.95;;;;;;;;;;5050070;28;20181;-69
2021/08/25 05:33:50;;;;;;;51.03;32.42;;;;;;;;;;5049878;28;20251;-69
2021/08/25 05:36:15;;;;;;;62.67;37.85;;;;;;;;;;5049145;28;20654;-69
2021/08/25 05:38:41;;;;;;;47.30;31.90;;;;;;;;;;5051495;28;20178;-69
2021/08/25 05:41:06;;;;;;;57.30;35.65;;;;;;;;;;5049863;28;20200;-68
2021/08/25 05:43:31;;;;;;;55.35;36.75;;;;;;;;;;5051481;28;20193;-69
2021/08/25 05:45:56;;;;;;;54.17;35.22;;;;;;;;;;5050244;28;20174;-69
2021/08/25 05:48:22;;;;;;;54.08;36.30;;;;;;;;;;5031816;28;20653;-68
2021/08/25 05:50:47;;;;;;;61.20;37.67;;;;;;;;;;5049691;28;20264;-70
2021/08/25 05:53:12;;;;;;;51.90;35.63;;;;;;;;;;5045431;28;20300;-68
2021/08/25 05:55:38;;;;;;;53.05;35.10;;;;;;;;;;5050441;28;20192;-69
2021/08/25 05:58:03;;;;;;;49.22;34.63;;;;;;;;;;5051192;28;20565;-70
2021/08/25 06:00:29;;;;;;;52.90;38.38;;;;;;;;;;5046493;28;20221;-69
2021/08/25 06:02:54;;;;;;;49.70;34.05;;;;;;;;;;5041287;28;20630;-69
2021/08/25 06:05:19;;;;;;;48.65;34.35;;;;;;;;;;5048555;28;20178;-70
2021/08/25 06:07:44;;;;;;;42.83;30.85;;;;;;;;;;5050291;28;20327;-70
2021/08/25 06:10:10;;;;;;;41.45;30.98;;;;;;;;;;5049949;28;20178;-69
2021/08/25 06:12:35;;;;;;;35.78;28.83;;;;;;;;;;5050696;28;20215;-70
2021/08/25 06:15:00;;;;;;;35.75;28.60;;;;;;;;;;5050066;28;20749;-69
2021/08/25 06:17:25;;;;;;;28.83;25.00;;;;;;;;;;5049954;28;20173;-69
2021/08/25 06:19:50;;;;;;;27.40;23.17;;;;;;;;;;5049111;28;20177;-69
2021/08/25 06:22:16;;;;;;;25.55;22.60;;;;;;;;;;5029718;28;20291;-70
2021/08/25 06:24:41;;;;;;;23.70;20.33;;;;;;;;;;5047721;28;20552;-70
2021/08/25 06:27:06;;;;;;;23.17;19.70;;;;;;;;;;5047333;28;20229;-70
2021/08/25 06:29:31;;;;;;;20.08;17.85;;;;;;;;;;5045748;28;20427;-71
2021/08/25 06:31:57;;;;;;;18.85;16.27;;;;;;;;;;5046948;28;20282;-68
2021/08/25 06:34:22;;;;;;;18.75;16.63;;;;;;;;;;5047306;28;20212;-68
2021/08/25 06:36:47;;;;;;;19.38;16.77;;;;;;;;;;5049342;28;20223;-68
2021/08/25 06:39:12;;;;;;;16.90;15.10;;;;;;;;;;5052472;28;20260;-68
2021/08/25 06:41:37;;;;;;;17.20;15.00;;;;;;;;;;5053811;28;20207;-69
2021/08/25 06:44:03;;;;;;;16.85;13.32;;;;;;;;;;5053781;28;20742;-68
2021/08/25 06:46:28;;;;;;;13.52;12.13;;;;;;;;;;5053290;28;20181;-68
2021/08/25 06:48:53;;;;;;;13.60;12.20;;;;;;;;;;5053776;28;20567;-69
2021/08/25 06:51:18;;;;;;;14.80;13.20;;;;;;;;;;5053619;28;20174;-68
2021/08/25 06:53:43;;;;;;;14.27;12.10;;;;;;;;;;5053340;28;20205;-68
2021/08/25 06:56:09;;;;;;;12.93;11.70;;;;;;;;;;5053798;28;20671;-68
2021/08/25 06:58:34;;;;;;;13.05;11.65;;;;;;;;;;5052524;28;20462;-68
2021/08/25 07:00:59;;;;;;;13.27;11.88;;;;;;;;;;5052095;28;20215;-68
2021/08/25 07:03:24;;;;;;;12.38;11.15;;;;;;;;;;5057136;28;20201;-69
2021/08/25 07:05:49;;;;;;;12.52;11.38;;;;;;;;;;5053667;28;20207;-68
2021/08/25 07:08:15;;;;;;;11.23;10.13;;;;;;;;;;5053249;28;20185;-68
2021/08/25 07:10:40;;;;;;;11.23;10.10;;;;;;;;;;5052576;28;20523;-68
2021/08/25 07:13:05;;;;;;;11.23;9.90;;;;;;;;;;5051827;28;20470;-69
2021/08/25 07:15:30;;;;;;;10.60;9.43;;;;;;;;;;5053172;28;20426;-69
2021/08/25 07:17:55;;;;;;;10.50;9.50;;;;;;;;;;5054107;28;20173;-69
2021/08/25 07:20:21;;;;;;;12.07;10.68;;;;;;;;;;5052105;28;20174;-69
2021/08/25 07:22:46;;;;;;;11.30;10.17;;;;;;;;;;5043426;28;20247;-68
2021/08/25 07:25:11;;;;;;;10.43;9.38;;;;;;;;;;5043395;28;20979;-69
2021/08/25 07:27:36;;;;;;;10.50;9.13;;;;;;;;;;5053423;28;20185;-69
2021/08/25 07:30:02;;;;;;;9.82;8.88;;;;;;;;;;5051053;28;20367;-69
2021/08/25 07:32:27;;;;;;;10.52;8.55;;;;;;;;;;5051523;28;20213;-69
2021/08/25 07:34:53;;;;;;;10.82;8.77;;;;;;;;;;5034210;28;20182;-69
2021/08/25 07:37:18;;;;;;;8.90;8.00;;;;;;;;;;5051261;28;20178;-71
2021/08/25 07:39:43;;;;;;;10.65;7.82;;;;;;;;;;5053907;28;20173;-69
2021/08/25 07:42:09;;;;;;;9.73;8.70;;;;;;;;;;5050978;28;20190;-69
2021/08/25 07:44:34;;;;;;;9.63;7.95;;;;;;;;;;5053029;28;20402;-69
2021/08/25 07:46:59;;;;;;;8.65;7.75;;;;;;;;;;5048528;28;20621;-69
2021/08/25 07:49:24;;;;;;;7.82;7.10;;;;;;;;;;5053585;28;20174;-69
2021/08/25 07:51:50;;;;;;;8.30;7.50;;;;;;;;;;5051067;28;20679;-69
2021/08/25 07:54:15;;;;;;;10.07;6.72;;;;;;;;;;5052929;28;20458;-69
2021/08/25 07:56:40;;;;;;;7.23;5.90;;;;;;;;;;5050756;28;20169;-68
2021/08/25 07:59:05;;;;;;;8.40;6.73;;;;;;;;;;5052899;28;20459;-68
2021/08/25 08:01:31;;;;;;;8.97;7.93;;;;;;;;;;5053195;28;20841;-69
2021/08/25 08:03:56;;;;;;;8.43;7.55;;;;;;;;;;5045266;28;20410;-68
2021/08/25 08:06:21;;;;;;;8.97;7.70;;;;;;;;;;5034913;28;20643;-68
2021/08/25 08:08:47;;;;;;;9.05;8.15;;;;;;;;;;5053087;28;20399;-67
2021/08/25 08:11:12;;;;;;;8.27;7.45;;;;;;;;;;5050696;28;20185;-68
2021/08/25 08:13:37;;;;;;;7.35;6.55;;;;;;;;;;5050772;28;20216;-68
2021/08/25 08:16:03;;;;;;;8.07;6.57;;;;;;;;;;5052941;28;20186;-69
2021/08/25 08:18:37;;;;;;;8.52;6.10;;;;;;;;;;5039024;28;20429;-68
2021/08/25 08:21:03;;;;;;;7.15;6.18;;;;;;;;;;5050529;28;20203;-68
2021/08/25 08:23:28;;;;;;;8.15;7.18;;;;;;;;;;5049177;28;20667;-68
2021/08/25 08:25:54;;;;;;;7.93;6.57;;;;;;;;;;5039640;28;20190;-69
2021/08/25 08:28:19;;;;;;;7.13;6.43;;;;;;;;;;5044942;28;20419;-70
2021/08/25 08:30:45;;;;;;;5.87;5.27;;;;;;;;;;5050539;28;20174;-69
2021/08/25 08:33:10;;;;;;;6.60;5.47;;;;;;;;;;5070912;22;20512;-66
2021/08/25 08:35:36;;;;;;;6.63;5.93;;;;;;;;;;5072004;28;20181;-67
2021/08/25 08:38:05;;;;;;;6.78;5.78;;;;;;;;;;5065894;28;20954;-66
2021/08/25 08:40:30;;;;;;;6.82;5.15;;;;;;;;;;5071938;28;20282;-67
2021/08/25 08:43:02;;;;;;;7.80;6.97;;;;;;;;;;5059002;28;20687;-66
2021/08/25 08:45:28;;;;;;;7.82;6.57;;;;;;;;;;5043277;28;20693;-66
2021/08/25 08:47:54;;;;;;;13.30;6.43;;;;;;;;;;5049355;28;20208;-66
2021/08/25 08:50:19;;;;;;;7.03;6.15;;;;;;;;;;5050485;28;20642;-66
2021/08/25 08:52:44;;;;;;;7.15;6.20;;;;;;;;;;5050343;28;20705;-66
2021/08/25 08:55:10;;;;;;;6.70;6.03;;;;;;;;;;5050674;28;20177;-66
2021/08/25 08:57:35;;;;;;;9.32;7.05;;;;;;;;;;5050648;28;20410;-67
2021/08/25 09:00:00;;;;;;;8.50;6.78;;;;;;;;;;5050373;28;20594;-66
2021/08/25 09:02:38;;;;;;;10.25;5.93;;;;;;;;;;5052329;28;20201;-67
2021/08/25 09:05:14;;;;;;;5.95;5.35;;;;;;;;;;5049727;28;20170;-67
2021/08/25 09:07:46;;;;;;;7.10;6.03;;;;;;;;;;5034807;28;20169;-67
2021/08/25 09:10:11;;;;;;;8.45;5.60;;;;;;;;;;5051181;28;20177;-67
2021/08/25 09:12:47;;;;;;;7.60;6.00;;;;;;;;;;5043251;28;20237;-67
2021/08/25 09:15:19;;;;;;;6.10;5.43;;;;;;;;;;5048887;28;20391;-67
2021/08/25 09:17:44;;;;;;;7.05;5.95;;;;;;;;;;5050788;28;20170;-67
2021/08/25 09:20:10;;;;;;;7.10;6.37;;;;;;;;;;5052301;28;20188;-68
2021/08/25 09:22:36;;;;;;;7.90;6.95;;;;;;;;;;5049986;28;20679;-67
2021/08/25 09:25:01;;;;;;;8.32;6.57;;;;;;;;;;5052686;28;20181;-67
2021/08/25 09:27:27;;;;;;;7.40;5.82;;;;;;;;;;5050992;28;20632;-66
2021/08/25 09:29:57;;;;;;;9.43;6.38;;;;;;;;;;5051396;28;20177;-67
2021/08/25 09:32:26;;;;;;;10.80;5.60;;;;;;;;;;5050450;28;20201;-67
2021/08/25 09:34:55;;;;;;;6.15;5.22;;;;;;;;;;5051489;28;20203;-67
2021/08/25 09:37:21;;;;;;;6.40;4.90;;;;;;;;;;5053073;28;20178;-67
2021/08/25 09:39:47;;;;;;;6.13;5.30;;;;;;;;;;5054657;28;20220;-67
2021/08/25 09:42:16;;;;;;;8.38;6.38;;;;;;;;;;5057426;28;20185;-67
2021/08/25 09:44:41;;;;;;;7.85;4.95;;;;;;;;;;5051591;28;20177;-67
2021/08/25 09:47:06;;;;;;;8.63;5.43;;;;;;;;;;5051409;28;20533;-67
2021/08/25 09:49:31;;;;;;;10.00;5.20;;;;;;;;;;5051221;28;20281;-67
2021/08/25 09:51:57;;;;;;;7.20;5.37;;;;;;;;;;5051197;28;20541;-67
2021/08/25 09:54:22;;;;;;;7.20;6.27;;;;;;;;;;5050925;28;20868;-67
2021/08/25 09:56:50;;;;;;;6.82;5.85;;;;;;;;;;5035914;28;20845;-68
2021/08/25 09:59:15;;;;;;;6.18;4.15;;;;;;;;;;5047503;28;20562;-67
2021/08/25 10:01:41;;;;;;;6.20;4.20;;;;;;;;;;5049687;28;20190;-68
2021/08/25 10:04:08;;;;;;;7.97;4.80;;;;;;;;;;5046376;28;20199;-67
2021/08/25 10:06:34;;;;;;;6.00;4.50;;;;;;;;;;5045869;28;20587;-67
2021/08/25 10:09:00;;;;;;;6.38;4.65;;;;;;;;;;5052782;28;20276;-67
2021/08/25 10:11:28;;;;;;;4.93;3.60;;;;;;;;;;5050380;28;20342;-67
2021/08/25 10:13:53;;;;;;;3.97;3.47;;;;;;;;;;5050853;28;20213;-67
2021/08/25 10:16:38;;;;;;;8.13;3.10;;;;;;;;;;5049327;28;20191;-67
2021/08/25 10:19:22;;;;;;;3.63;3.25;;;;;;;;;;5051962;28;20434;-67
2021/08/25 10:21:47;;;;;;;4.25;3.55;;;;;;;;;;5051032;28;20197;-67
2021/08/25 10:24:12;;;;;;;4.50;3.83;;;;;;;;;;5051041;28;20554;-67
2021/08/25 10:26:56;;;;;;;6.63;3.47;;;;;;;;;;5051905;28;20426;-68
2021/08/25 10:29:21;;;;;;;6.05;4.00;;;;;;;;;;5057063;28;20181;-66
2021/08/25 10:31:46;;;;;;;4.33;3.50;;;;;;;;;;5051677;28;20184;-67
2021/08/25 10:34:12;;;;;;;7.13;3.00;;;;;;;;;;5050509;28;20201;-68
2021/08/25 10:36:38;;;;;;;4.18;3.38;;;;;;;;;;5055303;28;20182;-67
2021/08/25 10:39:03;;;;;;;4.67;3.20;;;;;;;;;;5050464;28;20542;-67
2021/08/25 10:41:28;;;;;;;5.90;3.70;;;;;;;;;;5050794;28;20208;-67
2021/08/25 10:43:55;;;;;;;5.80;3.63;;;;;;;;;;5051889;28;20284;-67
2021/08/25 10:46:21;;;;;;;3.78;3.40;;;;;;;;;;5052526;28;20227;-67
2021/08/25 10:48:47;;;;;;;5.00;3.20;;;;;;;;;;5050732;28;20661;-67
2021/08/25 10:51:42;;;;;;;4.85;3.17;;;;;;;;;;5050599;28;21101;-67
2021/08/25 10:54:09;;;;;;;4.57;3.70;;;;;;;;;;5032476;28;20221;-66
2021/08/25 10:56:36;;;;;;;5.90;3.78;;;;;;;;;;5053388;28;20264;-67
2021/08/25 10:59:03;;;;;;;5.82;3.08;;;;;;;;;;5052914;28;20706;-67
2021/08/25 11:01:34;;;;;;;6.00;2.95;;;;;;;;;;5052671;28;20170;-67
2021/08/25 11:04:22;;;;;;;4.25;3.10;;;;;;;;;;5052197;28;20202;-67
2021/08/25 11:06:52;;;;;;;6.82;3.38;;;;;;;;;;5022180;28;20194;-68
2021/08/25 11:09:18;;;;;;;5.57;3.17;;;;;;;;;;5050379;28;20782;-67
2021/08/25 11:11:50;;;;;;;4.85;2.83;;;;;;;;;;5046378;28;20371;-68
2021/08/25 11:14:23;;;;;;;4.97;3.13;;;;;;;;;;5044281;28;20659;-68
2021/08/25 11:16:49;;;;;;;5.45;3.20;;;;;;;;;;5051262;28;20651;-67
2021/08/25 11:19:28;;;;;;;4.05;3.25;;;;;;;;;;5051565;28;20176;-68
2021/08/25 11:21:54;;;;;;;5.80;2.55;;;;;;;;;;5047555;28;20204;-67
2021/08/25 11:24:20;;;;;;;6.82;3.00;;;;;;;;;;5052729;28;20209;-67
2021/08/25 11:26:45;;;;;;;2.72;2.40;;;;;;;;;;5053354;28;20216;-68
2021/08/25 11:29:16;;;;;;;4.00;2.93;;;;;;;;;;5052754;28;20178;-67
2021/08/25 11:31:44;;;;;;;4.47;3.53;;;;;;;;;;5054646;28;20422;-68
2021/08/25 11:34:13;;;;;;;5.18;3.47;;;;;;;;;;5054075;28;20266;-67
2021/08/25 11:36:52;;;;;;;4.85;3.38;;;;;;;;;;5054700;28;20182;-67
2021/08/25 11:39:17;;;;;;;5.07;2.83;;;;;;;;;;5052829;28;20256;-67
2021/08/25 11:41:43;;;;;;;2.97;2.57;;;;;;;;;;5053201;28;20185;-67
2021/08/25 11:44:08;;;;;;;4.60;2.90;;;;;;;;;;5054004;28;20526;-67
2021/08/25 11:46:33;;;;;;;6.67;2.80;;;;;;;;;;5052864;28;20183;-68
2021/08/25 11:48:59;;;;;;;2.60;2.10;;;;;;;;;;5052775;28;20177;-68
2021/08/25 11:51:25;;;;;;;3.53;2.90;;;;;;;;;;5053663;28;20201;-67
2021/08/25 11:53:50;;;;;;;6.03;3.20;;;;;;;;;;5054892;28;20247;-67
2021/08/25 11:56:15;;;;;;;4.72;3.53;;;;;;;;;;5035881;28;20399;-68
2021/08/25 11:58:42;;;;;;;4.50;2.78;;;;;;;;;;5055650;28;20178;-67
2021/08/25 12:01:24;;;;;;;4.82;3.00;;;;;;;;;;5053519;28;20174;-67
2021/08/25 12:03:49;;;;;;;5.13;3.22;;;;;;;;;;5048978;28;20189;-67
2021/08/25 12:06:15;;;;;;;4.47;3.15;;;;;;;;;;5043579;28;20308;-66
2021/08/25 12:08:48;;;;;;;5.13;3.25;;;;;;;;;;5042881;28;20180;-67
2021/08/25 12:11:14;;;;;;;5.55;3.88;;;;;;;;;;5043605;28;20262;-68
2021/08/25 12:14:02;;;;;;;5.72;4.63;;;;;;;;;;5050594;28;20229;-67
2021/08/25 12:16:30;;;;;;;4.97;3.75;;;;;;;;;;5049679;28;20261;-67
2021/08/25 12:18:58;;;;;;;4.03;3.65;;;;;;;;;;5049443;28;20176;-67
2021/08/25 12:21:27;;;;;;;4.45;3.97;;;;;;;;;;5050155;28;20170;-67
2021/08/25 12:23:54;;;;;;;8.15;5.35;;;;;;;;;;5050601;28;20292;-67
2021/08/25 12:26:19;;;;;;;5.43;3.58;;;;;;;;;;5029494;28;20236;-67
2021/08/25 12:28:44;;;;;;;4.63;3.80;;;;;;;;;;5027409;28;20177;-66
2021/08/25 12:31:09;;;;;;;5.03;4.00;;;;;;;;;;5051073;28;20472;-67
2021/08/25 12:33:34;;;;;;;4.57;3.20;;;;;;;;;;5050984;28;20237;-67
2021/08/25 12:36:17;;;;;;;4.80;2.97;;;;;;;;;;5043212;28;20414;-67
2021/08/25 12:38:43;;;;;;;5.70;3.88;;;;;;;;;;5053748;28;20418;-67
2021/08/25 12:41:08;;;;;;;5.50;3.63;;;;;;;;;;5053147;28;20575;-67
2021/08/25 12:43:33;;;;;;;4.60;3.20;;;;;;;;;;5045170;28;20297;-66
2021/08/25 12:45:58;;;;;;;3.73;3.07;;;;;;;;;;5050930;28;20235;-67
2021/08/25 12:48:23;;;;;;;4.73;3.43;;;;;;;;;;5051564;28;20193;-67
2021/08/25 12:50:48;;;;;;;2.60;2.07;;;;;;;;;;5033571;28;20182;-67
2021/08/25 12:53:14;;;;;;;3.73;2.50;;;;;;;;;;5053617;28;20212;-68
2021/08/25 12:55:39;;;;;;;4.22;2.40;;;;;;;;;;5058403;28;20296;-68
2021/08/25 12:58:04;;;;;;;5.73;3.00;;;;;;;;;;5052583;28;20182;-68
2021/08/25 13:00:29;;;;;;;4.13;3.20;;;;;;;;;;5052366;28;20234;-68
2021/08/25 13:02:54;;;;;;;4.03;2.80;;;;;;;;;;5052297;28;20213;-68
2021/08/25 13:05:19;;;;;;;4.17;3.03;;;;;;;;;;5052436;28;20422;-67
2021/08/25 13:07:45;;;;;;;6.00;3.00;;;;;;;;;;5046839;28;20674;-69
2021/08/25 13:10:10;;;;;;;2.80;2.57;;;;;;;;;;5045213;28;20188;-68
2021/08/25 13:12:35;;;;;;;5.18;2.85;;;;;;;;;;5049420;28;20727;-68
2021/08/25 13:15:01;;;;;;;4.67;3.10;;;;;;;;;;5032590;28;20215;-67
2021/08/25 13:17:26;;;;;;;7.10;3.90;;;;;;;;;;5050334;28;20450;-68
2021/08/25 13:19:51;;;;;;;9.23;3.45;;;;;;;;;;5024398;28;20185;-67
2021/08/25 13:22:16;;;;;;;5.32;3.22;;;;;;;;;;5044650;28;20197;-67
2021/08/25 13:24:41;;;;;;;5.20;3.63;;;;;;;;;;5048497;28;20190;-67
2021/08/25 13:27:06;;;;;;;4.50;3.03;;;;;;;;;;5051828;28;20170;-68
2021/08/25 13:29:32;;;;;;;3.90;2.80;;;;;;;;;;5051665;28;20395;-68
2021/08/25 13:31:57;;;;;;;5.78;2.78;;;;;;;;;;5033677;28;20178;-67
2021/08/25 13:34:22;;;;;;;4.45;2.40;;;;;;;;;;5049649;28;20189;-70
2021/08/25 13:36:48;;;;;;;3.10;2.10;;;;;;;;;;5048397;28;20177;-68
2021/08/25 13:39:13;;;;;;;3.67;1.83;;;;;;;;;;5050013;28;20399;-68
2021/08/25 13:41:38;;;;;;;2.10;1.50;;;;;;;;;;5049642;28;20765;-70
2021/08/25 13:44:03;;;;;;;3.87;1.73;;;;;;;;;;5047319;28;20174;-67
2021/08/25 13:46:31;;;;;;;2.80;1.50;;;;;;;;;;5049308;28;20411;-67
2021/08/25 13:48:56;;;;;;;2.55;1.85;;;;;;;;;;5048848;28;20174;-67
2021/08/25 13:51:22;;;;;;;2.37;1.50;;;;;;;;;;5050127;28;20173;-67
2021/08/25 13:53:47;;;;;;;2.47;1.40;;;;;;;;;;5051547;28;20229;-68
2021/08/25 13:56:13;;;;;;;3.87;1.60;;;;;;;;;;5051322;28;20227;-67
2021/08/25 13:58:39;;;;;;;2.53;1.20;;;;;;;;;;5051174;28;20398;-68
2021/08/25 14:01:05;;;;;;;3.10;1.30;;;;;;;;;;5051473;28;20173;-67
2021/08/25 14:03:30;;;;;;;2.90;1.20;;;;;;;;;;5043027;28;20980;-68
2021/08/25 14:05:56;;;;;;;2.13;1.30;;;;;;;;;;5032333;28;20177;-68
2021/08/25 14:08:21;;;;;;;3.53;1.20;;;;;;;;;;5039234;28;20220;-67
2021/08/25 14:10:46;;;;;;;2.13;1.20;;;;;;;;;;5051423;28;20177;-66
2021/08/25 14:13:11;;;;;;;3.17;1.10;;;;;;;;;;5048052;28;20454;-67
2021/08/25 14:15:37;;;;;;;1.87;1.33;;;;;;;;;;5049963;28;20277;-66
2021/08/25 14:18:02;;;;;;;1.67;1.20;;;;;;;;;;5049711;28;20391;-66
2021/08/25 14:20:28;;;;;;;1.55;1.10;;;;;;;;;;5048491;28;20184;-67
2021/08/25 14:22:53;;;;;;;4.55;0.93;;;;;;;;;;5047047;28;20207;-68